createdAt,value
2019-04-25T00:01:23.584Z,85.20
2019-04-25T00:03:53.402Z,84.80
2019-04-25T00:06:23.122Z,84.20
2019-04-25T00:08:53.482Z,84.40
2019-04-25T00:11:22.684Z,83.40
2019-04-25T00:13:51.726Z,84.00
2019-04-25T00:16:22.574Z,84.90
2019-04-25T00:18:51.811Z,85.50
2019-04-25T00:21:43.350Z,85.10
2019-04-25T00:24:21.844Z,85.00
2019-04-25T00:26:52.506Z,85.70
2019-04-25T00:29:22.520Z,86.20
2019-04-25T00:31:52.879Z,86.40
2019-04-25T00:34:22.380Z,86.80
2019-04-25T00:36:51.604Z,86.10
2019-04-25T00:39:21.747Z,86.40
2019-04-25T00:41:52.083Z,86.80
2019-04-25T00:44:21.951Z,87.10
2019-04-25T00:46:56.130Z,86.70
2019-04-25T00:49:23.573Z,87.00
2019-04-25T00:51:53.251Z,87.40
2019-04-25T00:54:22.726Z,86.10
2019-04-25T00:56:52.753Z,86.50
2019-04-25T00:59:32.923Z,86.80
2019-04-25T01:02:17.129Z,84.50
2019-04-25T01:04:47.161Z,85.00
2019-04-25T01:07:16.285Z,84.80
2019-04-25T01:09:45.727Z,83.70
2019-04-25T01:12:15.208Z,85.20
2019-04-25T01:14:45.401Z,85.60
2019-04-25T01:17:14.859Z,86.20
2019-04-25T01:19:44.963Z,86.70
2019-04-25T01:22:15.075Z,85.20
2019-04-25T01:24:44.142Z,85.00
2019-04-25T01:27:14.061Z,84.40
2019-04-25T01:29:44.491Z,84.70
2019-04-25T01:32:16.426Z,84.20
2019-04-25T01:34:54.640Z,84.20
2019-04-25T01:37:34.046Z,83.40
2019-04-25T01:40:26.079Z,83.80
2019-04-25T01:43:17.225Z,84.10
2019-04-25T01:45:46.383Z,83.10
2019-04-25T01:48:15.471Z,83.00
2019-04-25T01:50:44.609Z,84.70
2019-04-25T01:53:14.598Z,85.70
2019-04-25T01:55:53.808Z,84.50
2019-04-25T01:58:14.625Z,85.90
2019-04-25T02:00:46.402Z,86.00
2019-04-25T02:03:15.874Z,85.40
2019-04-25T02:05:44.930Z,85.10
2019-04-25T02:08:14.338Z,85.00
2019-04-25T02:10:45.168Z,85.10
2019-04-25T02:13:16.852Z,85.50
2019-04-25T02:15:45.889Z,85.40
2019-04-25T02:18:14.995Z,87.10
2019-04-25T02:20:44.053Z,87.20
2019-04-25T02:23:14.144Z,85.90
2019-04-25T02:25:44.278Z,85.30
2019-04-25T02:28:15.539Z,85.30
2019-04-25T02:30:45.447Z,84.80
2019-04-25T02:33:14.759Z,85.20
2019-04-25T02:35:46.582Z,85.90
2019-04-25T02:38:16.874Z,84.60
2019-04-25T02:40:45.691Z,85.90
2019-04-25T02:43:14.865Z,85.50
2019-04-25T02:46:02.235Z,84.90
2019-04-25T02:48:49.678Z,84.30
2019-04-25T02:51:28.188Z,85.00
2019-04-25T02:53:57.855Z,85.90
2019-04-25T02:56:34.112Z,86.30
2019-04-25T02:58:58.490Z,87.00
2019-04-25T03:01:27.593Z,85.40
2019-04-25T03:03:57.963Z,86.60
2019-04-25T03:06:27.493Z,85.80
2019-04-25T03:08:57.793Z,85.60
2019-04-25T03:11:27.156Z,85.90
2019-04-25T03:13:56.198Z,86.30
2019-04-25T03:16:26.580Z,86.70
2019-04-25T03:19:20.759Z,85.70
2019-04-25T03:21:51.173Z,86.90
2019-04-25T03:24:20.266Z,87.20
2019-04-25T03:26:49.302Z,86.00
2019-04-25T03:29:18.409Z,86.10
2019-04-25T03:31:47.494Z,87.00
2019-04-25T03:34:20.324Z,86.50
2019-04-25T03:36:47.356Z,86.00
2019-04-25T03:39:16.600Z,87.30
2019-04-25T03:41:45.742Z,86.90
2019-04-25T03:44:14.859Z,85.70
2019-04-25T03:46:43.977Z,87.00
2019-04-25T03:49:13.904Z,87.00
2019-04-25T03:51:43.873Z,88.00
2019-04-25T03:54:14.270Z,87.50
2019-04-25T03:56:51.695Z,87.20
2019-04-25T03:59:15.907Z,88.40
2019-04-25T04:01:45.181Z,88.90
2019-04-25T04:04:16.332Z,88.50
2019-04-25T04:06:45.051Z,88.60
2019-04-25T04:09:15.152Z,88.50
2019-04-25T04:11:44.374Z,89.80
2019-04-25T04:14:15.401Z,90.30
2019-04-25T04:17:05.093Z,90.70
2019-04-25T04:19:40.719Z,91.00
2019-04-25T04:22:27.916Z,91.80
2019-04-25T04:24:58.634Z,92.30
2019-04-25T04:27:27.796Z,91.90
2019-04-25T04:29:56.899Z,92.50
2019-04-25T04:32:25.972Z,92.40
2019-04-25T04:34:55.057Z,92.90
2019-04-25T04:37:24.161Z,93.80
2019-04-25T04:39:53.674Z,93.60
2019-04-25T04:42:23.680Z,94.30
2019-04-25T04:44:53.455Z,95.40
2019-04-25T04:47:23.524Z,96.80
2019-04-25T04:49:54.004Z,96.70
2019-04-25T04:52:25.493Z,97.00
2019-04-25T04:55:05.458Z,97.90
2019-04-25T04:57:31.926Z,98.60
2019-04-25T04:59:55.731Z,98.80
2019-04-25T05:02:43.347Z,98.50
2019-04-25T05:05:31.743Z,98.80
2019-04-25T05:08:05.554Z,99.00
2019-04-25T05:10:34.633Z,98.80
2019-04-25T05:13:04.326Z,99.30
2019-04-25T05:15:33.511Z,99.00
2019-04-25T05:18:04.030Z,98.80
2019-04-25T05:20:34.299Z,98.90
2019-04-25T05:23:04.113Z,99.20
2019-04-25T05:25:34.527Z,99.30
2019-04-25T05:28:05.291Z,99.90
2019-04-25T05:30:49.059Z,99.70
2019-04-25T05:33:20.935Z,99.00
2019-04-25T05:35:48.915Z,99.20
2019-04-25T05:38:17.965Z,99.50
2019-04-25T05:40:58.161Z,99.50
2019-04-25T05:43:27.887Z,99.50
2019-04-25T05:45:58.079Z,99.60
2019-04-25T05:48:27.248Z,99.90
2019-04-25T05:50:56.357Z,99.90
2019-04-25T05:53:26.276Z,99.90
2019-04-25T05:55:55.528Z,99.90
2019-04-25T05:58:25.799Z,99.90
2019-04-25T06:00:56.095Z,99.90
2019-04-25T06:03:26.236Z,99.90
2019-04-25T06:05:55.652Z,99.90
2019-04-25T06:08:26.822Z,99.90
2019-04-25T06:11:05.287Z,99.90
2019-04-25T06:13:57.222Z,99.90
2019-04-25T06:16:30.324Z,99.90
2019-04-25T06:19:30.639Z,99.90
2019-04-25T06:21:59.905Z,99.90
2019-04-25T06:24:37.697Z,99.90
2019-04-25T06:27:26.911Z,99.90
2019-04-25T06:30:06.731Z,99.90
2019-04-25T06:32:35.823Z,99.90
2019-04-25T06:35:06.035Z,99.90
2019-04-25T06:37:35.206Z,99.90
2019-04-25T06:40:05.209Z,99.90
2019-04-25T06:42:34.929Z,99.90
2019-04-25T06:45:41.681Z,99.90
2019-04-25T06:48:20.313Z,99.90
2019-04-25T06:50:49.566Z,99.90
2019-04-25T06:53:18.693Z,99.90
2019-04-25T06:55:47.775Z,99.90
2019-04-25T06:58:16.877Z,99.90
2019-04-25T07:00:57.977Z,99.90
2019-04-25T07:03:16.841Z,99.90
2019-04-25T07:05:46.249Z,99.90
2019-04-25T07:08:15.358Z,99.90
2019-04-25T07:10:44.742Z,99.90
2019-04-25T07:13:14.313Z,99.90
2019-04-25T07:15:43.753Z,99.90
2019-04-25T07:18:13.955Z,99.90
2019-04-25T07:20:45.239Z,99.90
2019-04-25T07:23:14.054Z,99.90
2019-04-25T07:25:48.639Z,99.90
2019-04-25T07:28:50.913Z,99.90
2019-04-25T07:31:37.684Z,99.90
2019-04-25T07:34:16.172Z,99.90
2019-04-25T07:36:45.688Z,99.90
2019-04-25T07:39:14.796Z,99.90
2019-04-25T07:41:44.241Z,99.90
2019-04-25T07:44:14.659Z,99.90
2019-04-25T07:46:44.106Z,99.90
2019-04-25T07:49:13.571Z,99.90
2019-04-25T07:51:43.486Z,99.90
2019-04-25T07:54:14.286Z,99.90
2019-04-25T07:56:43.791Z,99.90
2019-04-25T07:59:13.909Z,99.90
2019-04-25T08:01:43.654Z,99.90
2019-04-25T08:04:13.709Z,99.90
2019-04-25T08:06:44.502Z,99.90
2019-04-25T08:09:14.221Z,99.90
2019-04-25T08:11:45.110Z,99.90
2019-04-25T08:14:32.084Z,99.90
2019-04-25T08:17:03.669Z,99.90
2019-04-25T08:19:34.383Z,99.90
2019-04-25T08:22:05.257Z,99.90
2019-04-25T08:24:37.226Z,99.90
2019-04-25T08:27:06.812Z,99.90
2019-04-25T08:29:38.005Z,99.90
2019-04-25T08:32:07.079Z,99.90
2019-04-25T08:34:37.157Z,99.90
2019-04-25T08:37:17.499Z,99.90
2019-04-25T08:39:38.414Z,99.90
2019-04-25T08:42:08.313Z,99.90
2019-04-25T08:44:37.549Z,99.90
2019-04-25T08:47:06.699Z,99.90
2019-04-25T08:49:46.006Z,99.90
2019-04-25T08:52:15.251Z,99.90
2019-04-25T08:55:14.130Z,99.90
2019-04-25T08:58:11.266Z,99.90
2019-04-25T09:01:00.777Z,99.90
2019-04-25T09:03:27.706Z,99.90
2019-04-25T09:06:05.578Z,99.90
2019-04-25T09:08:35.976Z,99.90
2019-04-25T09:11:05.645Z,99.90
2019-04-25T09:13:35.862Z,99.90
2019-04-25T09:16:05.550Z,99.90
2019-04-25T09:18:36.702Z,99.90
2019-04-25T09:21:05.614Z,99.90
2019-04-25T09:23:36.463Z,99.90
2019-04-25T09:26:05.660Z,99.90
2019-04-25T09:28:37.945Z,99.90
2019-04-25T09:31:05.918Z,99.90
2019-04-25T09:33:36.020Z,99.90
2019-04-25T09:36:06.886Z,99.90
2019-04-25T09:38:36.942Z,99.90
2019-04-25T09:41:06.138Z,99.90
2019-04-25T09:43:35.835Z,99.90
2019-04-25T09:46:13.328Z,99.90
2019-04-25T09:49:19.538Z,99.90
2019-04-25T09:51:53.346Z,99.90
2019-04-25T09:54:40.131Z,99.90
2019-04-25T09:57:26.866Z,99.90
2019-04-25T09:59:56.038Z,99.90
2019-04-25T10:02:25.795Z,99.90
2019-04-25T10:04:55.235Z,99.90
2019-04-25T10:07:24.650Z,99.90
2019-04-25T10:09:54.748Z,99.90
2019-04-25T10:12:23.960Z,99.90
2019-04-25T10:15:19.620Z,99.90
2019-04-25T10:17:48.750Z,99.90
2019-04-25T10:20:18.982Z,99.90
2019-04-25T10:22:48.168Z,99.90
2019-04-25T10:25:17.668Z,99.90
2019-04-25T10:27:49.258Z,99.90
2019-04-25T10:30:23.113Z,99.90
2019-04-25T10:32:50.791Z,99.90
2019-04-25T10:35:20.056Z,99.90
2019-04-25T10:37:49.263Z,99.90
2019-04-25T10:40:19.180Z,99.90
2019-04-25T10:42:50.387Z,99.90
2019-04-25T10:45:23.095Z,99.90
2019-04-25T10:47:50.191Z,99.90
2019-04-25T10:50:19.361Z,99.90
2019-04-25T10:52:48.481Z,99.90
2019-04-25T10:55:17.604Z,99.90
2019-04-25T10:57:46.677Z,99.90
2019-04-25T11:00:28.213Z,99.90
2019-04-25T11:02:59.606Z,99.90
2019-04-25T11:05:28.761Z,99.90
2019-04-25T11:07:57.862Z,99.90
2019-04-25T11:10:26.964Z,99.90
2019-04-25T11:12:56.079Z,99.90
2019-04-25T11:15:25.277Z,99.90
2019-04-25T11:17:55.073Z,99.90
2019-04-25T11:20:26.161Z,99.90
2019-04-25T11:22:55.247Z,99.90
2019-04-25T11:25:24.663Z,99.90
2019-04-25T11:27:54.148Z,99.90
2019-04-25T11:30:26.248Z,99.90
2019-04-25T11:32:56.159Z,99.90
2019-04-25T11:35:25.321Z,99.90
2019-04-25T11:37:56.915Z,99.90
2019-04-25T11:40:32.271Z,99.90
2019-04-25T11:43:01.341Z,99.90
2019-04-25T11:45:30.435Z,99.90
2019-04-25T11:47:59.537Z,99.90
2019-04-25T11:50:28.941Z,99.90
2019-04-25T11:52:58.851Z,99.90
2019-04-25T11:55:28.109Z,99.90
2019-04-25T11:57:57.829Z,99.90
2019-04-25T12:00:29.891Z,99.90
2019-04-25T12:02:59.045Z,99.80
2019-04-25T12:05:28.606Z,99.50
2019-04-25T12:07:57.718Z,99.50
2019-04-25T12:10:28.230Z,99.40
2019-04-25T12:12:57.866Z,99.10
2019-04-25T12:15:27.144Z,99.10
2019-04-25T12:17:56.249Z,98.90
2019-04-25T12:20:25.547Z,98.80
2019-04-25T12:23:05.966Z,98.60
2019-04-25T12:25:25.446Z,98.40
2019-04-25T12:27:54.778Z,98.30
2019-04-25T12:30:36.688Z,98.10
2019-04-25T12:32:55.235Z,97.90
2019-04-25T12:35:24.422Z,97.70
2019-04-25T12:37:54.119Z,97.70
2019-04-25T12:40:24.372Z,97.40
2019-04-25T12:42:54.361Z,97.10
2019-04-25T12:45:54.687Z,97.00
2019-04-25T12:48:23.906Z,96.80
2019-04-25T12:50:54.266Z,96.60
2019-04-25T12:53:24.076Z,96.90
2019-04-25T12:55:53.768Z,97.00
2019-04-25T12:58:24.038Z,97.30
2019-04-25T13:00:57.198Z,97.30
2019-04-25T13:03:24.522Z,97.20
2019-04-25T13:05:54.058Z,97.00
2019-04-25T13:08:24.222Z,96.80
2019-04-25T13:10:54.405Z,96.40
2019-04-25T13:13:24.148Z,96.10
2019-04-25T13:15:53.389Z,95.80
2019-04-25T13:18:22.651Z,95.30
2019-04-25T13:20:51.811Z,95.20
2019-04-25T13:23:21.188Z,95.10
2019-04-25T13:25:50.487Z,94.80
2019-04-25T13:28:38.729Z,94.70
2019-04-25T13:31:35.925Z,94.70
2019-04-25T13:34:08.201Z,95.00
2019-04-25T13:39:17.040Z,95.50
2019-04-25T13:41:46.262Z,95.60
2019-04-25T13:44:15.467Z,95.40
2019-04-25T13:46:44.582Z,95.60
2019-04-25T13:49:15.038Z,95.10
2019-04-25T13:51:44.201Z,95.00
2019-04-25T13:54:14.665Z,95.60
2019-04-25T13:56:44.019Z,95.70
2019-04-25T13:59:13.225Z,96.20
2019-04-25T14:01:44.083Z,96.00
2019-04-25T14:04:14.186Z,95.70
2019-04-25T14:06:43.550Z,95.40
2019-04-25T14:09:16.856Z,95.00
2019-04-25T14:11:45.926Z,95.00
2019-04-25T14:14:15.079Z,94.70
2019-04-25T14:17:07.107Z,94.40
2019-04-25T14:19:55.304Z,94.10
2019-04-25T14:22:25.217Z,93.20
2019-04-25T14:24:54.365Z,92.90
2019-04-25T14:27:24.825Z,92.80
2019-04-25T14:29:54.317Z,92.60
2019-04-25T14:32:26.136Z,92.50
2019-04-25T14:34:54.551Z,92.40
2019-04-25T14:37:26.481Z,92.60
2019-04-25T14:39:58.776Z,92.10
2019-04-25T14:42:30.685Z,91.40
2019-04-25T14:45:00.021Z,91.10
2019-04-25T14:47:29.574Z,90.30
2019-04-25T14:49:58.827Z,89.90
2019-04-25T14:52:28.112Z,88.50
2019-04-25T14:55:34.475Z,88.00
2019-04-25T14:58:05.300Z,88.30
2019-04-25T15:00:38.483Z,89.10
2019-04-25T15:03:07.747Z,89.20
2019-04-25T15:05:37.356Z,89.00
2019-04-25T15:08:06.661Z,89.60
2019-04-25T15:10:36.421Z,89.10
2019-04-25T15:13:06.804Z,88.60
2019-04-25T15:15:35.918Z,88.30
2019-04-25T15:18:05.663Z,89.50
2019-04-25T15:20:34.794Z,88.40
2019-04-25T15:23:03.882Z,89.10
2019-04-25T15:25:32.984Z,89.10
2019-04-25T15:28:02.134Z,88.90
2019-04-25T15:30:32.727Z,88.60
2019-04-25T15:33:01.880Z,89.00
2019-04-25T15:35:45.898Z,88.90
2019-04-25T15:38:20.866Z,89.30
2019-04-25T15:41:00.768Z,90.60
2019-04-25T15:43:37.000Z,90.80
2019-04-25T15:46:23.970Z,91.50
2019-04-25T15:48:53.061Z,91.10
2019-04-25T15:51:22.234Z,91.20
2019-04-25T15:53:51.389Z,91.30
2019-04-25T15:56:20.468Z,91.40
2019-04-25T15:58:49.619Z,91.30
2019-04-25T16:01:18.773Z,89.70
2019-04-25T16:03:47.973Z,88.10
2019-04-25T16:06:17.041Z,87.20
2019-04-25T16:08:46.530Z,87.50
2019-04-25T16:11:15.943Z,88.40
2019-04-25T16:13:46.938Z,88.10
2019-04-25T16:16:16.086Z,88.40
2019-04-25T16:18:45.186Z,88.90
2019-04-25T16:21:14.333Z,89.50
2019-04-25T16:23:43.473Z,90.00
2019-04-25T16:26:12.849Z,90.30
2019-04-25T16:28:41.958Z,90.50
2019-04-25T16:31:13.078Z,90.90
2019-04-25T16:33:42.205Z,91.10
2019-04-25T16:36:11.333Z,91.00
2019-04-25T16:38:41.051Z,90.90
2019-04-25T16:41:10.651Z,90.90
2019-04-25T16:43:43.211Z,91.10
2019-04-25T16:46:12.865Z,91.20
2019-04-25T16:48:41.933Z,91.10
2019-04-25T16:51:11.017Z,91.10
2019-04-25T16:53:40.136Z,91.10
2019-04-25T16:56:10.191Z,91.10
2019-04-25T16:58:39.285Z,91.30
2019-04-25T17:01:12.859Z,91.40
2019-04-25T17:03:43.036Z,91.70
2019-04-25T17:06:12.284Z,91.90
2019-04-25T17:08:41.433Z,92.10
2019-04-25T17:11:10.801Z,92.30
2019-04-25T17:13:48.939Z,92.60
2019-04-25T17:16:39.943Z,92.80
2019-04-25T17:19:19.451Z,92.90
2019-04-25T17:21:48.713Z,92.80
2019-04-25T17:24:17.831Z,92.80
2019-04-25T17:26:46.956Z,93.00
2019-04-25T17:29:19.488Z,93.10
2019-04-25T17:32:19.506Z,93.20
2019-04-25T17:35:11.886Z,93.20
2019-04-25T17:37:51.287Z,93.40
2019-04-25T17:40:24.504Z,93.50
2019-04-25T17:42:53.608Z,93.40
2019-04-25T17:45:26.514Z,93.20
2019-04-25T17:47:55.570Z,93.30
2019-04-25T17:50:24.577Z,93.60
2019-04-25T17:52:53.692Z,93.10
2019-04-25T17:55:22.784Z,93.10
2019-04-25T17:57:51.986Z,93.10
2019-04-25T18:00:38.209Z,93.20
2019-04-25T18:03:09.324Z,93.40
2019-04-25T18:05:39.278Z,93.60
2019-04-25T18:08:08.513Z,93.80
2019-04-25T18:10:37.846Z,93.90
2019-04-25T18:13:09.333Z,94.00
2019-04-25T18:15:59.864Z,94.10
2019-04-25T18:18:50.741Z,94.10
2019-04-25T18:21:19.922Z,94.20
2019-04-25T18:24:06.475Z,94.20
2019-04-25T18:26:57.814Z,94.40
2019-04-25T18:29:26.966Z,94.60
2019-04-25T18:31:56.127Z,94.60
2019-04-25T18:34:52.789Z,94.90
2019-04-25T18:37:39.311Z,94.90
2019-04-25T18:40:15.810Z,95.10
2019-04-25T18:43:10.096Z,95.30
2019-04-25T18:45:41.052Z,95.60
2019-04-25T18:48:10.086Z,95.60
2019-04-25T18:50:39.209Z,96.00
2019-04-25T18:53:33.501Z,96.10
2019-04-25T18:56:11.663Z,96.30
2019-04-25T18:59:06.341Z,96.50
2019-04-25T19:02:00.229Z,96.80
2019-04-25T19:04:51.249Z,97.30
2019-04-25T19:07:22.657Z,97.50
2019-04-25T19:09:51.431Z,97.90
2019-04-25T19:12:20.587Z,98.30
2019-04-25T19:14:49.661Z,99.00
2019-04-25T19:17:18.757Z,99.30
2019-04-25T19:19:47.827Z,99.50
2019-04-25T19:22:16.938Z,99.80
2019-04-25T19:24:47.374Z,99.70
2019-04-25T19:27:23.499Z,99.60
2019-04-25T19:29:47.623Z,99.90
2019-04-25T19:32:16.810Z,99.90
2019-04-25T19:34:46.652Z,99.90
2019-04-25T19:37:15.899Z,99.90
2019-04-25T19:39:50.173Z,99.90
2019-04-25T19:42:31.574Z,99.90
2019-04-25T19:45:00.763Z,99.90
2019-04-25T19:47:29.899Z,99.90
2019-04-25T19:49:58.966Z,99.90
2019-04-25T19:52:29.586Z,99.90
2019-04-25T19:54:58.878Z,99.90
2019-04-25T19:57:28.049Z,99.90
2019-04-25T19:59:57.172Z,99.90
2019-04-25T20:02:40.171Z,99.90
2019-04-25T20:05:19.142Z,99.90
2019-04-25T20:08:07.326Z,99.90
2019-04-25T20:10:42.603Z,99.90
2019-04-25T20:13:12.338Z,99.90
2019-04-25T20:15:41.424Z,99.90
2019-04-25T20:18:10.553Z,99.90
2019-04-25T20:20:39.668Z,99.90
2019-04-25T20:23:08.787Z,99.90
2019-04-25T20:25:37.963Z,99.90
2019-04-25T20:28:07.080Z,99.90
2019-04-25T20:30:36.180Z,99.90
2019-04-25T20:33:05.408Z,99.90
2019-04-25T20:35:34.525Z,99.90
2019-04-25T20:38:04.311Z,99.90
2019-04-25T20:40:33.435Z,99.90
2019-04-25T20:43:02.589Z,99.90
2019-04-25T20:45:31.791Z,99.90
2019-04-25T20:48:00.903Z,99.90
2019-04-25T20:50:30.039Z,99.90
2019-04-25T20:52:59.086Z,99.90
2019-04-25T20:55:28.172Z,99.90
2019-04-25T20:57:57.861Z,99.90
2019-04-25T21:00:41.472Z,99.90
2019-04-25T21:03:10.603Z,99.90
2019-04-25T21:05:40.135Z,99.90
2019-04-25T21:08:09.340Z,99.90
2019-04-25T21:10:38.531Z,99.90
2019-04-25T21:13:10.892Z,99.90
2019-04-25T21:15:59.047Z,99.90
2019-04-25T21:18:35.372Z,99.90
2019-04-25T21:21:04.448Z,99.90
2019-04-25T21:23:35.421Z,99.90
2019-04-25T21:26:04.726Z,99.90
2019-04-25T21:28:33.903Z,99.90
2019-04-25T21:31:03.408Z,99.90
2019-04-25T21:33:32.662Z,99.90
2019-04-25T21:36:02.119Z,99.90
2019-04-25T21:38:31.539Z,99.90
2019-04-25T21:41:25.496Z,99.90
2019-04-25T21:44:00.170Z,99.90
2019-04-25T21:46:29.631Z,99.90
2019-04-25T21:48:59.024Z,99.90
2019-04-25T21:51:31.112Z,99.90
2019-04-25T21:54:01.371Z,99.90
2019-04-25T21:56:30.977Z,99.90
2019-04-25T21:59:00.094Z,99.90
2019-04-25T22:01:32.707Z,99.90
2019-04-25T22:04:01.972Z,99.90
2019-04-25T22:06:31.981Z,99.90
2019-04-25T22:09:01.155Z,99.90
2019-04-25T22:11:30.583Z,99.90
2019-04-25T22:13:59.964Z,99.90
2019-04-25T22:16:29.584Z,99.90
2019-04-25T22:18:59.875Z,99.90
2019-04-25T22:21:37.911Z,99.90
2019-04-25T22:24:08.681Z,99.90
2019-04-25T22:26:30.952Z,99.90
2019-04-25T22:29:01.207Z,99.90
2019-04-25T22:31:35.378Z,99.90
2019-04-25T22:34:11.366Z,99.90
2019-04-25T22:36:41.143Z,99.90
2019-04-25T22:39:11.329Z,99.90
2019-04-25T22:41:46.253Z,99.90
2019-04-25T22:44:16.074Z,99.90
2019-04-25T22:46:45.647Z,99.90
2019-04-25T22:49:14.698Z,99.90
2019-04-25T22:51:43.838Z,99.90
2019-04-25T22:54:13.291Z,99.90
2019-04-25T22:56:42.387Z,99.90
2019-04-25T22:59:11.757Z,99.90
2019-04-25T23:02:11.746Z,99.90
2019-04-25T23:05:09.010Z,99.90
2019-04-25T23:07:34.105Z,99.90
2019-04-25T23:10:04.332Z,99.90
2019-04-25T23:12:33.848Z,99.90
2019-04-25T23:15:04.055Z,99.90
2019-04-25T23:17:33.925Z,99.90
2019-04-25T23:20:04.341Z,99.90
2019-04-25T23:22:34.098Z,99.90
2019-04-25T23:25:07.979Z,99.90
2019-04-25T23:28:11.886Z,99.90
2019-04-25T23:31:15.281Z,99.90
2019-04-25T23:33:44.703Z,99.90
2019-04-25T23:36:14.078Z,99.90
2019-04-25T23:38:43.540Z,99.90
2019-04-25T23:41:13.578Z,99.90
2019-04-25T23:43:42.670Z,99.90
2019-04-25T23:46:11.984Z,99.90
2019-04-25T23:48:41.426Z,99.90
2019-04-25T23:51:11.342Z,99.90
2019-04-25T23:53:40.668Z,99.90
2019-04-25T23:56:09.772Z,99.90
2019-04-25T23:58:39.340Z,99.90
